Time;durP1;ratioP1;P1;durP2;ratioP2;P2;SDS_P1;SDS_P2;PMS_P1;PMS_P2;Temp;Humidity;BMP_temperature;BMP_pressure;BME280_temperature;BME280_humidity;BME280_pressure;Samples;Min_cycle;Max_cycle;Signal;HPM_P1;HPM_P2
2022/11/22 00:01:32;;;;;;;8.13;7.33;;;;;;;8.69;100.00;-12318.25;5094453;28;20194;-57
2022/11/22 00:03:59;;;;;;;8.10;7.70;;;;;;;8.65;100.00;-12000.31;5094437;28;20271;-56
2022/11/22 00:06:27;;;;;;;8.07;7.67;;;;;;;8.47;100.00;-11363.09;5094438;28;20188;-56
2022/11/22 00:08:54;;;;;;;8.03;7.63;;;;;;;8.52;100.00;-11681.19;5094404;28;20282;-56
2022/11/22 00:11:21;;;;;;;8.90;8.40;;;;;;;8.49;100.00;-11363.44;5094564;28;20208;-56
2022/11/22 00:13:48;;;;;;;7.87;7.40;;;;;;;8.46;100.00;-10728.31;5094310;28;20194;-56
2022/11/22 00:16:14;;;;;;;8.23;7.83;;;;;;;8.55;100.00;-11046.84;5095021;28;20618;-56
2022/11/22 00:18:41;;;;;;;7.93;7.53;;;;;;;8.56;100.00;-10729.53;5094133;28;20180;-57
2022/11/22 00:21:08;;;;;;;8.00;7.60;;;;;;;8.51;100.00;-10728.88;5094403;28;20181;-57
2022/11/22 00:23:37;;;;;;;8.23;7.83;;;;;;;8.63;100.00;-10412.84;5094131;28;20191;-57
2022/11/22 00:26:05;;;;;;;8.40;8.00;;;;;;;8.68;100.00;-10095.91;5094178;28;20187;-57
2022/11/22 00:28:32;;;;;;;8.43;7.83;;;;;;;8.59;100.00;-10729.91;5094274;28;20214;-56
2022/11/22 00:30:59;;;;;;;8.17;7.77;;;;;;;8.53;100.00;-10729.16;5094254;28;20567;-57
2022/11/22 00:33:26;;;;;;;8.57;8.17;;;;;;;8.46;100.00;-10410.91;5093875;28;20234;-57
2022/11/22 00:35:53;;;;;;;7.70;7.37;;;;;;;8.28;100.00;-10091.41;5094215;28;20207;-57
2022/11/22 00:38:20;;;;;;;8.80;8.40;;;;;;;8.36;100.00;-9774.84;5094138;28;20184;-57
2022/11/22 00:40:48;;;;;;;8.80;8.30;;;;;;;8.34;100.00;-9457.19;5094030;28;20547;-57
2022/11/22 00:43:15;;;;;;;9.07;8.57;;;;;;;8.21;100.00;-8503.66;5093752;28;20191;-58
2022/11/22 00:45:42;;;;;;;9.33;8.83;;;;;;;8.21;100.00;-8186.16;5092529;28;20184;-59
2022/11/22 00:48:09;;;;;;;9.13;8.63;;;;;;;8.16;100.00;-7868.19;5092720;28;20188;-57
2022/11/22 00:50:36;;;;;;;9.13;8.63;;;;;;;8.10;100.00;-8502.66;5093758;28;20578;-57
2022/11/22 00:53:03;;;;;;;8.87;8.43;;;;;;;8.19;100.00;-9138.31;5093879;28;20207;-57
2022/11/22 00:55:30;;;;;;;9.07;8.63;;;;;;;8.19;100.00;-9773.06;5093985;28;20215;-58
2022/11/22 00:57:59;;;;;;;9.23;8.73;;;;;;;8.21;100.00;-9773.28;5093581;28;20226;-57
2022/11/22 01:00:26;;;;;;;9.07;8.57;;;;;;;8.17;100.00;-10407.50;5093573;28;20188;-57
2022/11/22 01:02:53;;;;;;;9.37;8.77;;;;;;;8.33;100.00;-11044.00;5093450;28;20198;-58
2022/11/22 01:05:20;;;;;;;10.43;9.73;;;;;;;8.36;100.00;-11678.88;5093659;28;20283;-57
2022/11/22 01:07:47;;;;;;;9.80;9.30;;;;;;;8.26;100.00;-12311.97;5093444;28;20180;-57
2022/11/22 01:10:14;;;;;;;9.33;8.73;;;;;;;8.41;100.00;-12948.50;5093107;28;20226;-58
2022/11/22 01:12:41;;;;;;;9.70;9.20;;;;;;;8.38;100.00;-12948.03;5093104;28;20184;-57
2022/11/22 01:15:10;;;;;;;9.23;8.77;;;;;;;8.49;100.00;-12949.78;5093070;28;20188;-57
2022/11/22 01:17:37;;;;;;;9.60;9.03;;;;;;;8.34;100.00;-11995.81;5092986;28;20188;-57
2022/11/22 01:20:06;;;;;;;9.03;8.60;;;;;;;8.21;100.00;-11042.53;5093326;28;20186;-58
2022/11/22 01:22:33;;;;;;;9.87;9.37;;;;;;;8.33;100.00;-10726.69;5093218;28;20258;-57
2022/11/22 01:25:00;;;;;;;9.47;8.97;;;;;;;8.42;100.00;-10727.81;5091695;28;20191;-56
2022/11/22 01:27:27;;;;;;;9.33;8.83;;;;;;;8.42;100.00;-11362.50;5092872;28;20186;-57
2022/11/22 01:29:53;;;;;;;9.17;8.70;;;;;;;8.46;100.00;-11680.34;5093014;28;20574;-56
2022/11/22 01:32:22;;;;;;;9.37;8.83;;;;;;;8.55;100.00;-11998.94;5092991;28;20606;-57
2022/11/22 01:34:49;;;;;;;8.90;8.40;;;;;;;8.59;100.00;-11999.44;5092706;28;20188;-56
2022/11/22 01:37:16;;;;;;;10.07;9.30;;;;;;;8.62;100.00;-11999.94;5093026;28;20210;-57
2022/11/22 01:39:43;;;;;;;9.70;9.20;;;;;;;8.47;100.00;-11680.47;5092641;28;20254;-57
2022/11/22 01:42:11;;;;;;;9.43;8.87;;;;;;;8.30;100.00;-11043.56;5092931;28;20188;-58
2022/11/22 01:44:40;;;;;;;9.67;9.00;;;;;;;8.33;100.00;-12312.94;5092543;28;20275;-57
2022/11/22 01:47:12;;;;;;;9.83;9.33;;;;;;;8.30;100.00;-12629.56;5092496;28;20188;-57
2022/11/22 01:49:44;;;;;;;10.20;9.57;;;;;;;8.28;100.00;-12629.41;5092357;28;20234;-57
2022/11/22 01:52:16;;;;;;;9.87;9.27;;;;;;;8.33;100.00;-11995.75;5093225;28;20654;-57
2022/11/22 01:54:45;;;;;;;10.40;9.80;;;;;;;8.42;100.00;-11997.06;5092417;28;20187;-58
2022/11/22 01:57:17;;;;;;;9.63;9.13;;;;;;;8.32;100.00;-11043.88;5092771;28;20188;-58
2022/11/22 01:59:49;;;;;;;10.00;9.27;;;;;;;8.25;100.00;-12945.94;5092450;28;20627;-57
2022/11/22 02:02:16;;;;;;;10.43;9.83;;;;;;;8.21;100.00;-13262.41;5092295;28;20188;-57
2022/11/22 02:04:45;;;;;;;10.33;9.73;;;;;;;8.22;100.00;-14847.22;5092238;28;20192;-57
2022/11/22 02:07:18;;;;;;;9.83;9.13;;;;;;;8.19;100.00;-13895.94;5092545;28;20180;-58
2022/11/22 02:09:48;;;;;;;10.30;9.70;;;;;;;8.17;100.00;-12310.63;5092476;28;20184;-59
2022/11/22 02:12:18;;;;;;;9.30;8.70;;;;;;;8.22;100.00;-11042.66;5092450;28;20631;-58
2022/11/22 02:14:45;;;;;;;9.97;9.20;;;;;;;8.28;100.00;-11043.34;5092923;28;20198;-57
2022/11/22 02:17:12;;;;;;;9.70;9.17;;;;;;;8.34;100.00;-10726.81;5092381;28;20191;-57
2022/11/22 02:19:42;;;;;;;9.67;9.07;;;;;;;8.46;100.00;-10728.31;5092052;28;20191;-57
2022/11/22 02:22:21;;;;;;;9.13;8.63;;;;;;;8.52;100.00;-11046.47;5092361;28;20210;-57
2022/11/22 02:24:55;;;;;;;9.57;8.87;;;;;;;8.40;100.00;-9775.34;5092311;28;20188;-57
2022/11/22 02:27:24;;;;;;;9.70;9.03;;;;;;;7.87;100.00;-8817.97;5092303;28;20695;-57
2022/11/22 02:29:51;;;;;;;9.87;9.10;;;;;;;8.28;100.00;-11360.69;5092123;28;20623;-57
2022/11/22 02:32:17;;;;;;;9.43;8.87;;;;;;;8.29;100.00;-11360.75;5091934;28;20283;-57
2022/11/22 02:34:46;;;;;;;9.53;8.93;;;;;;;8.40;100.00;-11044.91;5092183;28;20257;-57
2022/11/22 02:37:17;;;;;;;10.13;9.23;;;;;;;8.18;100.00;-8820.84;5091869;28;20195;-57
2022/11/22 02:39:46;;;;;;;9.50;8.90;;;;;;;8.26;100.00;-8821.53;5091856;28;20282;-57
2022/11/22 02:42:13;;;;;;;9.20;8.60;;;;;;;8.24;100.00;-8186.34;5091762;28;20188;-57
2022/11/22 02:44:42;;;;;;;9.83;9.13;;;;;;;8.27;100.00;-7869.09;5092563;28;20188;-57
2022/11/22 02:47:09;;;;;;;10.20;9.60;;;;;;;8.32;100.00;-7551.81;5091737;28;20190;-57
2022/11/22 02:49:36;;;;;;;9.63;8.97;;;;;;;8.26;100.00;-6280.78;5092064;28;20198;-57
2022/11/22 02:52:02;;;;;;;9.27;8.87;;;;;;;8.30;100.00;-5327.59;5091612;28;20208;-58
2022/11/22 02:54:29;;;;;;;9.67;8.97;;;;;;;8.45;100.00;-4692.22;5092005;28;20270;-57
2022/11/22 02:56:56;;;;;;;8.83;8.30;;;;;;;8.55;100.00;-3420.13;5091960;28;20188;-58
2022/11/22 02:59:23;;;;;;;10.10;9.50;;;;;;;8.56;100.00;-3101.97;5092077;28;20184;-58
2022/11/22 03:01:51;;;;;;;8.80;8.40;;;;;;;8.57;100.00;-1828.97;5091841;28;20287;-57
2022/11/22 03:04:24;;;;;;;9.13;8.53;;;;;;;8.39;100.00;-2147.53;5091591;28;20187;-57
2022/11/22 03:06:55;;;;;;;8.87;8.40;;;;;;;8.46;100.00;-2783.81;5091593;28;20180;-56
2022/11/22 03:09:23;;;;;;;9.77;9.23;;;;;;;8.49;100.00;-2783.81;5091902;28;20188;-57
2022/11/22 03:11:50;;;;;;;9.20;8.70;;;;;;;8.48;100.00;-3738.19;5095249;28;20208;-57
2022/11/22 03:14:17;;;;;;;9.13;8.63;;;;;;;8.66;100.00;-4692.75;5095451;28;20184;-58
2022/11/22 03:16:45;;;;;;;9.50;9.07;;;;;;;8.79;100.00;-4693.06;5095350;28;20188;-58
2022/11/22 03:19:14;;;;;;;9.03;8.53;;;;;;;8.75;100.00;-3101.94;5095692;28;20188;-57
2022/11/22 03:21:42;;;;;;;9.07;8.67;;;;;;;8.56;100.00;-3101.97;5095542;28;20184;-58
2022/11/22 03:24:10;;;;;;;10.13;9.63;;;;;;;8.65;100.00;-1828.78;5095534;28;20644;-57
2022/11/22 03:26:37;;;;;;;9.47;9.00;;;;;;;8.64;100.00;-1828.78;5095486;28;20192;-57
2022/11/22 03:29:04;;;;;;;9.23;8.73;;;;;;;8.58;100.00;81.56;5095521;28;20187;-57
2022/11/22 03:31:31;;;;;;;9.80;9.30;;;;;;;8.55;100.00;1355.63;5095015;28;20277;-57
2022/11/22 03:33:58;;;;;;;9.57;9.00;;;;;;;8.30;100.00;-3738.00;5094946;28;20238;-57
2022/11/22 03:36:26;;;;;;;9.50;9.00;;;;;;;8.46;100.00;-5328.16;5095063;28;20195;-57
2022/11/22 03:38:53;;;;;;;9.87;9.27;;;;;;;8.62;100.00;-5646.69;5095299;28;20184;-56
2022/11/22 03:41:20;;;;;;;9.87;9.23;;;;;;;8.74;100.00;-5329.13;5095683;28;20184;-58
2022/11/22 03:43:47;;;;;;;10.20;9.40;;;;;;;8.75;100.00;-4692.97;5094886;28;20196;-56
2022/11/22 03:46:15;;;;;;;10.70;10.10;;;;;;;8.52;100.00;-5010.41;5094885;28;20180;-57
2022/11/22 03:48:42;;;;;;;10.13;9.60;;;;;;;8.57;100.00;-6600.19;5095140;28;20184;-57
2022/11/22 03:51:09;;;;;;;10.53;9.83;;;;;;;8.64;100.00;-7871.88;5095000;28;20662;-57
2022/11/22 03:53:37;;;;;;;10.67;10.10;;;;;;;8.34;100.00;-8504.75;5094990;28;20275;-58
2022/11/22 03:56:04;;;;;;;10.63;10.03;;;;;;;8.41;100.00;-10727.63;5094644;28;20216;-56
2022/11/22 03:58:32;;;;;;;10.37;9.47;;;;;;;8.42;100.00;-11997.06;5094900;28;20215;-57
2022/11/22 04:00:59;;;;;;;9.83;9.33;;;;;;;8.38;100.00;-10409.94;5094476;28;20191;-56
2022/11/22 04:03:26;;;;;;;11.33;10.50;;;;;;;8.49;100.00;-9776.31;5094539;28;20191;-57
2022/11/22 04:05:53;;;;;;;10.33;9.67;;;;;;;8.47;100.00;-8823.47;5094759;28;20210;-57
2022/11/22 04:08:20;;;;;;;10.30;9.70;;;;;;;8.51;100.00;-6282.00;5094712;28;20196;-57
2022/11/22 04:10:50;;;;;;;10.73;10.03;;;;;;;8.25;100.00;-6280.69;5094583;28;20220;-56
2022/11/22 04:13:17;;;;;;;10.83;10.17;;;;;;;8.41;100.00;-5963.69;5094274;28;20188;-57
2022/11/22 04:15:43;;;;;;;11.07;10.23;;;;;;;8.43;100.00;-5010.13;5094536;28;20549;-57
2022/11/22 04:18:10;;;;;;;10.03;9.50;;;;;;;8.37;100.00;-5963.50;5094154;28;20184;-57
2022/11/22 04:23:23;;;;;;;10.60;10.00;;;;;;;8.39;100.00;-4692.06;5094685;28;20547;-56
2022/11/22 04:25:52;;;;;;;10.73;9.97;;;;;;;8.34;100.00;-5963.34;5094011;28;20188;-57
2022/11/22 04:28:20;;;;;;;11.23;10.63;;;;;;;8.41;100.00;-4374.16;5093982;28;20184;-57
2022/11/22 04:33:32;;;;;;;11.03;10.37;;;;;;;8.45;100.00;-4692.22;5093719;28;20606;-57
2022/11/22 04:35:59;;;;;;;12.67;11.57;;;;;;;8.47;100.00;-4374.28;5093844;28;20210;-55
2022/11/22 04:38:26;;;;;;;11.10;10.40;;;;;;;8.50;100.00;-4374.34;5094136;28;20193;-57
2022/11/22 04:40:54;;;;;;;11.37;10.57;;;;;;;8.45;100.00;-4056.22;5093754;28;20187;-57
2022/11/22 04:46:08;;;;;;;11.03;10.33;;;;;;;8.34;100.00;-1829.44;5093686;28;20656;-57
2022/11/22 04:48:35;;;;;;;11.87;11.07;;;;;;;8.32;100.00;-3420.03;5093542;28;20191;-56
2022/11/22 04:53:47;;;;;;;11.57;10.80;;;;;;;8.27;100.00;-8821.63;5093462;28;20218;-56
2022/11/22 04:56:15;;;;;;;11.93;11.13;;;;;;;8.11;100.00;-9137.56;5093450;28;20188;-57
2022/11/22 04:58:42;;;;;;;12.23;11.30;;;;;;;8.34;100.00;-10092.03;5093319;28;20187;-57
2022/11/22 05:01:09;;;;;;;12.03;11.23;;;;;;;8.43;100.00;-9775.59;5093295;28;20187;-57
2022/11/22 05:03:36;;;;;;;11.67;10.77;;;;;;;8.46;100.00;-9458.47;5093175;28;20190;-57
2022/11/22 05:06:05;;;;;;;12.57;11.57;;;;;;;8.50;100.00;-8506.16;5093525;28;20206;-57
2022/11/22 05:08:32;;;;;;;12.77;11.60;;;;;;;8.52;100.00;-7553.25;5093196;28;20198;-57
2022/11/22 05:10:59;;;;;;;12.70;11.40;;;;;;;8.52;100.00;-6599.91;5092959;28;20211;-57
2022/11/22 05:13:30;;;;;;;11.80;11.00;;;;;;;8.52;100.00;-6282.09;5093275;28;20574;-56
2022/11/22 05:15:58;;;;;;;12.13;11.13;;;;;;;8.60;100.00;-5964.56;5093248;28;20188;-56
2022/11/22 05:18:25;;;;;;;12.77;11.73;;;;;;;8.60;100.00;-5964.56;5093218;28;20188;-57
2022/11/22 05:20:53;;;;;;;12.50;11.50;;;;;;;8.62;100.00;-5328.72;5093073;28;20196;-57
2022/11/22 05:26:05;;;;;;;13.40;12.27;;;;;;;8.35;100.00;-4056.06;5093406;28;20249;-57
2022/11/22 05:28:34;;;;;;;13.97;12.83;;;;;;;8.32;100.00;-5645.50;5093146;28;20206;-56
2022/11/22 05:31:07;;;;;;;15.20;13.37;;;;;;;8.50;100.00;-7235.34;5092647;28;20249;-57
2022/11/22 05:33:36;;;;;;;14.63;13.40;;;;;;;8.51;100.00;-8188.53;5092130;28;20606;-56
2022/11/22 05:36:03;;;;;;;15.40;12.57;;;;;;;8.58;100.00;-8506.84;5091763;28;20605;-57
2022/11/22 05:38:30;;;;;;;14.80;13.27;;;;;;;8.58;100.00;-7871.41;5092576;28;20187;-57
2022/11/22 05:40:57;;;;;;;14.03;12.77;;;;;;;8.34;100.00;-8187.16;5092560;28;20350;-56
2022/11/22 05:43:24;;;;;;;13.50;12.50;;;;;;;8.38;100.00;-8822.66;5092817;28;20184;-57
2022/11/22 05:45:52;;;;;;;13.07;12.17;;;;;;;8.36;100.00;-8504.88;5092348;28;20287;-57
2022/11/22 05:48:22;;;;;;;13.33;11.77;;;;;;;8.31;100.00;-8822.00;5092708;28;20211;-57
2022/11/22 05:50:50;;;;;;;13.33;11.90;;;;;;;8.29;100.00;-6916.31;5092226;28;20188;-57
2022/11/22 05:53:17;;;;;;;13.43;12.17;;;;;;;8.47;100.00;-5963.97;5092572;28;20564;-57
2022/11/22 05:55:44;;;;;;;13.13;12.00;;;;;;;8.56;100.00;-4692.50;5092557;28;20267;-57
2022/11/22 05:58:10;;;;;;;12.07;11.20;;;;;;;8.67;100.00;-3738.38;5092618;28;20184;-56
2022/11/22 06:00:37;;;;;;;12.43;11.50;;;;;;;8.71;100.00;-873.34;5092444;28;20192;-57
2022/11/22 06:03:06;;;;;;;13.20;12.03;;;;;;;8.76;100.00;82.47;5092139;28;20184;-52
2022/11/22 06:05:33;;;;;;;13.27;11.90;;;;;;;8.80;100.00;1038.66;5092380;28;20206;-54
2022/11/22 06:08:02;;;;;;;13.20;12.23;;;;;;;8.76;100.00;-236.13;5092181;28;20200;-54
2022/11/22 06:10:29;;;;;;;13.33;12.13;;;;;;;8.81;100.00;1038.72;5092044;28;20231;-57
2022/11/22 06:12:56;;;;;;;12.77;11.73;;;;;;;9.06;100.00;-234.69;5091815;28;20204;-56
2022/11/22 06:15:23;;;;;;;11.57;10.87;;;;;;;9.46;100.00;2958.00;5091692;28;20188;-57
2022/11/22 06:17:50;;;;;;;11.97;11.00;;;;;;;9.84;100.00;17367.81;5090886;28;20184;-60
2022/11/22 06:20:18;;;;;;;11.80;11.10;;;;;;;10.01;100.00;26049.47;5091828;28;20239;-61
2022/11/22 06:22:45;;;;;;;11.23;10.53;;;;;;;9.99;100.00;35392.25;5092137;28;20198;-61
2022/11/22 06:25:12;;;;;;;12.20;11.13;;;;;;;10.06;100.00;37656.59;5091737;28;20188;-61
2022/11/22 06:27:44;;;;;;;12.17;11.03;;;;;;;10.01;100.00;41529.66;5093049;28;20241;-61
2022/11/22 06:30:12;;;;;;;11.93;11.17;;;;;;;9.96;100.00;39264.19;5091916;28;20592;-60
2022/11/22 06:32:39;;;;;;;11.27;10.57;;;;;;;9.90;100.00;30873.47;5091438;28;20326;-60
2022/11/22 06:35:07;;;;;;;12.70;11.83;;;;;;;9.81;100.00;24110.56;5091960;28;20187;-61
2022/11/22 06:37:35;;;;;;;11.93;11.23;;;;;;;9.95;100.00;24116.81;5091893;28;20199;-61
2022/11/22 06:40:02;;;;;;;11.93;11.07;;;;;;;9.89;100.00;34095.81;5090358;28;20192;-61
2022/11/22 06:42:29;;;;;;;11.23;10.53;;;;;;;9.93;100.00;32164.13;5091722;28;20536;-60
2022/11/22 06:44:56;;;;;;;11.90;11.10;;;;;;;9.89;100.00;34095.81;5092202;28;20212;-60
2022/11/22 06:47:23;;;;;;;10.83;10.13;;;;;;;10.00;100.00;35715.56;5095890;28;20651;-62
2022/11/22 06:49:50;;;;;;;11.40;10.73;;;;;;;10.10;100.00;34108.94;5095801;28;20184;-61
2022/11/22 06:52:17;;;;;;;12.10;11.03;;;;;;;10.19;100.00;36050.16;5095489;28;20211;-62
2022/11/22 06:54:46;;;;;;;12.20;11.27;;;;;;;10.25;100.00;36054.34;5095533;28;20180;-61
2022/11/22 06:57:14;;;;;;;13.03;12.07;;;;;;;10.27;100.00;38962.28;5095350;28;20270;-61
2022/11/22 06:59:41;;;;;;;15.03;12.20;;;;;;;10.28;100.00;36701.75;5095178;28;20188;-63
2022/11/22 07:02:11;;;;;;;14.67;12.37;;;;;;;10.35;100.00;35737.56;5095190;28;20186;-62
2022/11/22 07:04:38;;;;;;;16.33;11.70;;;;;;;10.82;100.00;40617.84;5095105;28;20190;-60
2022/11/22 07:07:05;;;;;;;18.87;11.87;;;;;;;11.95;100.00;88689.78;5095370;28;20579;-61
2022/11/22 07:09:32;;;;;;;11.10;9.97;;;;;;;12.78;100.00;149251.22;5094288;28;20192;-62
2022/11/22 07:12:00;;;;;;;10.03;9.23;;;;;;;13.50;100.00;149431.13;5095068;28;20682;-61
2022/11/22 07:14:27;;;;;;;9.27;8.57;;;;;;;14.46;100.00;149672.03;5095077;28;20204;-62
2022/11/22 07:16:54;;;;;;;15.97;9.87;;;;;;;15.35;100.00;149895.25;5094745;28;20279;-62
2022/11/22 07:19:21;;;;;;;12.33;8.93;;;;;;;15.66;100.00;149972.72;5094775;28;20188;-61
2022/11/22 07:21:48;;;;;;;9.63;8.70;;;;;;;16.53;100.00;150192.31;5094680;28;20176;-60
2022/11/22 07:24:15;;;;;;;9.17;8.33;;;;;;;17.12;100.00;150340.97;5093579;28;20184;-62
2022/11/22 07:26:42;;;;;;;10.10;8.97;;;;;;;17.32;100.00;150390.50;5094980;28;20184;-62
2022/11/22 07:29:10;;;;;;;23.27;9.83;;;;;;;17.62;100.00;150465.53;5095303;28;20733;-62
2022/11/22 07:31:38;;;;;;;10.07;9.17;;;;;;;17.41;100.00;150412.09;5094844;28;20257;-60
2022/11/22 07:34:04;;;;;;;11.90;9.43;;;;;;;17.02;100.00;150314.25;5094574;28;20254;-62
2022/11/22 07:36:31;;;;;;;9.57;9.07;;;;;;;17.20;100.00;150360.00;5094740;28;20561;-62
2022/11/22 07:38:58;;;;;;;12.17;8.80;;;;;;;17.25;100.00;150372.72;5094486;28;20268;-61
2022/11/22 07:41:25;;;;;;;10.20;9.23;;;;;;;17.73;100.00;150493.50;5094445;28;20188;-62
2022/11/22 07:43:52;;;;;;;10.73;9.70;;;;;;;17.85;100.00;150524.00;5094470;28;20197;-61
2022/11/22 07:46:24;;;;;;;9.53;8.97;;;;;;;18.20;100.00;150612.97;5094475;28;20188;-61
2022/11/22 07:48:52;;;;;;;12.17;8.57;;;;;;;17.58;100.00;150456.63;5094362;28;20196;-61
2022/11/22 07:51:19;;;;;;;9.73;8.90;;;;;;;16.52;100.00;150189.75;5093827;28;20208;-61
2022/11/22 07:53:46;;;;;;;18.63;10.77;;;;;;;15.11;100.00;149835.59;5093603;28;20271;-62
2022/11/22 07:56:14;;;;;;;12.50;9.07;;;;;;;14.92;100.00;149788.69;5091890;28;20206;-60
2022/11/22 07:58:41;;;;;;;10.73;9.67;;;;;;;14.41;100.00;149660.59;5094509;28;20180;-60
2022/11/22 08:01:11;;;;;;;10.90;9.83;;;;;;;14.26;100.00;149622.50;5084995;28;20208;-60
2022/11/22 08:03:40;;;;;;;15.67;10.67;;;;;;;14.13;100.00;149589.59;5073719;28;20203;-61
2022/11/22 08:06:08;;;;;;;10.63;9.57;;;;;;;15.77;100.00;150001.88;5077376;28;20574;-60
2022/11/22 08:08:36;;;;;;;12.03;9.17;;;;;;;15.70;100.00;149982.84;5094243;28;20184;-60
2022/11/22 08:11:03;;;;;;;10.70;9.13;;;;;;;14.91;100.00;149784.88;5094043;28;20206;-60
2022/11/22 08:13:31;;;;;;;15.27;9.47;;;;;;;15.20;100.00;149857.16;5093609;28;20219;-61
2022/11/22 08:16:03;;;;;;;11.67;9.80;;;;;;;14.63;100.00;149715.13;5092476;28;20184;-60
2022/11/22 08:18:30;;;;;;;12.73;9.20;;;;;;;14.27;100.00;149623.78;5093708;28;20192;-61
2022/11/22 08:21:09;;;;;;;13.40;9.97;;;;;;;14.36;100.00;149646.66;5092737;28;20184;-60
2022/11/22 08:23:36;;;;;;;17.07;10.53;;;;;;;13.70;100.00;149481.84;5094183;28;20614;-60
2022/11/22 08:26:04;;;;;;;13.30;9.53;;;;;;;13.58;100.00;149451.41;5073891;28;20205;-61
2022/11/22 08:28:31;;;;;;;10.70;9.57;;;;;;;13.38;100.00;149400.72;5073655;28;20248;-61
2022/11/22 08:31:09;;;;;;;18.40;9.93;;;;;;;13.22;100.00;149362.75;5073328;28;20276;-61
2022/11/22 08:33:36;;;;;;;9.43;8.60;;;;;;;13.15;100.00;149345.00;5073303;28;20703;-60
2022/11/22 08:36:04;;;;;;;12.53;10.07;;;;;;;13.38;100.00;149402.00;5072949;28;20189;-61
2022/11/22 08:38:32;;;;;;;9.90;9.17;;;;;;;13.47;100.00;149424.81;5073594;28;20659;-60
2022/11/22 08:40:59;;;;;;;9.43;8.70;;;;;;;13.99;100.00;149555.34;5078808;28;20329;-62
2022/11/22 08:43:28;;;;;;;9.77;9.03;;;;;;;14.29;100.00;149630.16;5091287;28;20279;-61
2022/11/22 08:45:57;;;;;;;10.67;8.50;;;;;;;14.16;100.00;149598.44;5085477;28;20196;-60
2022/11/22 08:48:27;;;;;;;9.53;8.90;;;;;;;15.06;100.00;149824.19;5093676;28;20670;-60
2022/11/22 08:50:57;;;;;;;8.50;8.10;;;;;;;15.66;100.00;149973.94;5093666;28;20601;-60
2022/11/22 08:53:24;;;;;;;9.20;8.37;;;;;;;17.68;100.00;150480.78;5086482;28;20246;-61
2022/11/22 08:55:59;;;;;;;8.87;8.27;;;;;;;19.01;100.00;150815.28;5086581;28;20204;-62
2022/11/22 08:58:29;;;;;;;10.10;9.20;;;;;;;19.19;100.00;150861.03;5093539;28;20179;-60
2022/11/22 09:01:06;;;;;;;9.47;8.67;;;;;;;19.83;96.27;151021.44;5093414;28;20263;-61
2022/11/22 09:03:34;;;;;;;8.97;8.00;;;;;;;20.19;95.54;151111.84;5085274;28;20244;-60
2022/11/22 09:06:02;;;;;;;11.23;8.93;;;;;;;20.50;91.80;151190.81;5091550;28;20212;-61
2022/11/22 09:08:29;;;;;;;9.10;8.60;;;;;;;20.85;90.17;151278.72;5091860;28;20180;-62
2022/11/22 09:11:00;;;;;;;8.32;7.82;;;;;;;21.22;85.03;151373.03;5092893;28;20196;-60
2022/11/22 09:13:27;;;;;;;8.10;7.55;;;;;;;21.43;80.83;151426.56;5092513;28;20212;-61
2022/11/22 09:15:56;;;;;;;8.93;8.13;;;;;;;21.71;81.23;151496.69;5081950;28;20570;-61
2022/11/22 09:18:26;;;;;;;8.48;7.75;;;;;;;21.40;84.00;151418.94;5091393;28;20238;-60
2022/11/22 09:20:57;;;;;;;7.53;7.22;;;;;;;21.49;79.85;151440.59;5079114;28;20201;-62
2022/11/22 09:23:24;;;;;;;7.65;7.10;;;;;;;22.85;71.12;151782.38;5072407;28;20213;-61
2022/11/22 09:25:58;;;;;;;8.00;6.72;;;;;;;22.81;69.96;151773.47;5071995;28;20326;-61
2022/11/22 09:28:26;;;;;;;11.65;7.13;;;;;;;22.88;68.53;151791.31;5089391;28;20253;-61
2022/11/22 09:30:59;;;;;;;7.50;6.80;;;;;;;23.00;65.91;151821.91;5092579;28;20184;-61
2022/11/22 09:33:27;;;;;;;7.45;6.65;;;;;;;22.76;67.97;151761.97;5085964;28;20232;-61
2022/11/22 09:35:59;;;;;;;14.35;7.78;;;;;;;23.07;67.38;151838.53;5076301;28;20197;-61
2022/11/22 09:38:26;;;;;;;9.50;6.88;;;;;;;22.47;68.15;151687.97;5071644;28;20322;-61
2022/11/22 09:40:53;;;;;;;9.07;6.63;;;;;;;22.63;69.72;151728.78;5104320;28;20185;-61
2022/11/22 09:43:34;;;;;;;6.68;6.28;;;;;;;22.45;67.58;151682.84;5071999;28;20185;-61
2022/11/22 09:46:16;;;;;;;5.85;5.63;;;;;;;22.79;67.10;151767.09;5072169;28;20193;-61
2022/11/22 09:48:59;;;;;;;6.60;6.07;;;;;;;22.47;67.74;151687.97;5071668;28;20191;-61
2022/11/22 09:51:32;;;;;;;6.13;5.82;;;;;;;21.93;69.22;151550.28;5072161;28;20200;-60
2022/11/22 09:54:05;;;;;;;9.57;6.35;;;;;;;22.31;68.64;151648.44;5071637;28;20208;-60
2022/11/22 09:56:33;;;;;;;6.22;5.93;;;;;;;22.54;65.46;151704.53;5071706;28;20191;-61
2022/11/22 09:59:06;;;;;;;6.32;5.82;;;;;;;22.54;65.91;151704.53;5071721;28;20196;-61
2022/11/22 10:01:40;;;;;;;6.85;6.25;;;;;;;23.00;64.42;151821.91;5072015;28;20188;-61
2022/11/22 10:04:13;;;;;;;6.20;5.75;;;;;;;22.61;65.80;151722.41;5071747;28;20195;-60
2022/11/22 10:06:43;;;;;;;5.90;5.60;;;;;;;23.22;63.40;151876.78;5071880;28;20203;-60
2022/11/22 10:09:32;;;;;;;5.82;5.47;;;;;;;22.83;63.51;151778.53;5071942;28;20189;-61
2022/11/22 10:12:03;;;;;;;5.57;5.05;;;;;;;23.10;63.72;151846.16;5071281;28;20188;-60
2022/11/22 10:14:44;;;;;;;5.00;4.63;;;;;;;22.43;64.20;151676.47;5071627;28;20191;-62
2022/11/22 10:17:26;;;;;;;7.68;5.35;;;;;;;22.89;61.84;151793.88;5071892;28;20199;-60
2022/11/22 10:20:01;;;;;;;6.18;5.55;;;;;;;23.01;61.67;151823.19;5071076;28;20220;-60
2022/11/22 10:22:29;;;;;;;6.28;5.43;;;;;;;23.51;59.56;151950.84;5071472;28;20276;-62
2022/11/22 10:24:58;;;;;;;9.07;5.18;;;;;;;23.55;56.97;151959.81;5071659;28;20193;-61
2022/11/22 10:27:31;;;;;;;4.90;4.57;;;;;;;23.55;56.58;151961.03;5071899;28;20283;-59
2022/11/22 10:30:04;;;;;;;6.47;5.60;;;;;;;23.36;57.89;151911.25;5071771;28;20196;-62
2022/11/22 10:32:37;;;;;;;6.15;5.80;;;;;;;23.88;56.05;152044.03;5071373;28;20220;-61
2022/11/22 10:35:30;;;;;;;5.55;5.22;;;;;;;24.51;52.65;152203.69;5071318;28;20192;-60
2022/11/22 10:38:07;;;;;;;5.30;4.93;;;;;;;24.61;51.88;152227.97;5072009;28;20230;-63
2022/11/22 10:40:43;;;;;;;5.65;4.70;;;;;;;24.06;53.45;152089.97;5071506;28;20558;-61
2022/11/22 10:43:33;;;;;;;6.07;5.47;;;;;;;24.14;51.73;152109.16;5071501;28;20654;-62
2022/11/22 10:46:14;;;;;;;7.97;4.90;;;;;;;24.20;51.97;152123.22;5071157;28;20271;-60
2022/11/22 10:48:49;;;;;;;4.80;4.50;;;;;;;24.24;50.93;152133.44;5071368;28;20532;-61
2022/11/22 10:51:25;;;;;;;5.05;4.60;;;;;;;23.53;51.94;151954.69;5071595;28;20227;-62
2022/11/22 10:54:04;;;;;;;5.28;5.07;;;;;;;23.28;53.31;151892.13;5071129;28;20212;-61
2022/11/22 10:56:38;;;;;;;5.28;4.88;;;;;;;24.49;52.03;152198.56;5071265;28;20579;-60
2022/11/22 10:59:25;;;;;;;4.88;4.68;;;;;;;23.68;51.52;151992.94;5071546;28;20287;-61
2022/11/22 11:02:03;;;;;;;5.28;4.88;;;;;;;23.87;53.07;152040.19;5100658;28;20276;-61
2022/11/22 11:04:34;;;;;;;6.57;4.93;;;;;;;23.78;51.59;152018.50;5071034;28;20177;-61
2022/11/22 11:07:04;;;;;;;6.90;4.00;;;;;;;24.55;50.42;152212.59;5071361;28;20578;-60
2022/11/22 11:09:37;;;;;;;7.70;5.18;;;;;;;24.92;50.62;152307.16;5070986;28;20189;-62
2022/11/22 11:12:13;;;;;;;7.68;7.18;;;;;;;25.05;51.97;152337.81;5071005;28;20258;-61
2022/11/22 11:14:45;;;;;;;8.15;7.60;;;;;;;24.48;52.74;152194.75;5071021;28;20185;-60
2022/11/22 11:17:17;;;;;;;7.38;7.07;;;;;;;23.50;52.91;151948.31;5071184;28;20640;-61
2022/11/22 11:19:47;;;;;;;6.20;5.90;;;;;;;22.67;54.21;151737.69;5071368;28;20562;-61
2022/11/22 11:22:18;;;;;;;10.27;4.93;;;;;;;21.35;57.33;151406.16;5071274;28;20536;-62
2022/11/22 11:24:45;;;;;;;6.17;5.80;;;;;;;20.21;61.25;151116.94;5070858;28;20195;-61
2022/11/22 11:27:13;;;;;;;9.07;6.60;;;;;;;19.10;70.97;150838.13;5071087;28;20254;-60
2022/11/22 11:29:43;;;;;;;9.27;8.63;;;;;;;18.05;81.19;150574.84;5071019;28;20666;-60
2022/11/22 11:32:14;;;;;;;9.50;8.83;;;;;;;17.61;85.93;150464.25;5073457;28;20192;-61
2022/11/22 11:34:48;;;;;;;10.40;9.40;;;;;;;17.31;89.54;150389.22;5074344;28;20209;-61
2022/11/22 11:37:24;;;;;;;9.80;8.80;;;;;;;16.95;93.71;150296.50;5074710;28;20236;-61
2022/11/22 11:39:51;;;;;;;9.67;9.07;;;;;;;16.56;95.82;150199.91;5074385;28;20200;-61
2022/11/22 11:42:27;;;;;;;10.07;8.17;;;;;;;16.09;100.00;150080.56;5074352;28;20185;-61
2022/11/22 11:44:54;;;;;;;8.87;8.30;;;;;;;15.63;100.00;149966.34;5074567;28;20598;-60